Time;durP1;ratioP1;P1;durP2;ratioP2;P2;SDS_P1;SDS_P2;PMS_P1;PMS_P2;Temp;Humidity;BMP_temperature;BMP_pressure;BME280_temperature;BME280_humidity;BME280_pressure;Samples;Min_cycle;Max_cycle;Signal;HPM_P1;HPM_P2
2021/12/23 00:04:51;;;;;;;51.50;24.10;;;;;;;-3.44;77.57;100652.70;208139;1316;140879;-65
2021/12/23 00:10:05;;;;;;;62.10;26.60;;;;;;;-3.51;77.56;100647.16;207512;1317;162025;-65
2021/12/23 00:25:44;;;;;;;45.60;21.80;;;;;;;-3.77;77.19;100634.41;206938;1316;151637;-65
2021/12/23 00:30:47;;;;;;;51.00;24.00;;;;;;;-3.84;77.14;100633.44;207377;1317;140576;-66
2021/12/23 00:35:52;;;;;;;38.90;20.60;;;;;;;-3.92;77.14;100630.42;207763;1319;141235;-65
2021/12/23 00:40:58;;;;;;;51.90;22.30;;;;;;;-4.01;77.22;100621.94;207479;1316;139694;-66
2021/12/23 00:46:06;;;;;;;49.90;22.60;;;;;;;-4.11;77.24;100617.36;207142;1316;140188;-65
2021/12/23 00:51:12;;;;;;;41.50;18.90;;;;;;;-4.24;76.98;100610.39;206864;1316;139844;-66
2021/12/23 00:56:18;;;;;;;43.80;24.00;;;;;;;-4.34;77.29;100605.58;207272;1318;140278;-65
2021/12/23 01:01:22;;;;;;;51.10;24.50;;;;;;;-4.37;77.46;100603.20;206934;1318;141893;-65
2021/12/23 01:06:25;;;;;;;55.70;25.30;;;;;;;-4.32;77.51;100603.84;207917;1316;140791;-66
2021/12/23 01:11:28;;;;;;;43.30;19.60;;;;;;;-4.24;77.62;100594.08;207031;1317;211073;-66
2021/12/23 01:21:56;;;;;;;53.20;26.40;;;;;;;-4.16;77.84;100579.73;206874;1319;140161;-66
2021/12/23 01:26:58;;;;;;;21.10;9.80;;;;;;;-4.12;77.97;100571.76;207106;1317;141176;-66
2021/12/23 01:32:04;;;;;;;49.10;22.60;;;;;;;-4.12;77.77;100575.02;207890;1316;140827;-66
2021/12/23 01:37:08;;;;;;;46.20;24.20;;;;;;;-4.03;77.63;100567.07;208019;1317;141008;-66
2021/12/23 01:42:10;;;;;;;41.10;20.70;;;;;;;-3.96;77.81;100568.95;207427;1318;141657;-66
2021/12/23 01:47:14;;;;;;;54.30;24.00;;;;;;;-3.95;77.67;100561.52;208764;1319;140165;-66
2021/12/23 01:52:17;;;;;;;49.70;25.60;;;;;;;-3.93;77.90;100557.36;207835;1318;139616;-66
2021/12/23 01:57:21;;;;;;;55.90;22.30;;;;;;;-3.91;77.63;100542.09;208836;1316;140327;-66
2021/12/23 02:02:24;;;;;;;44.40;19.60;;;;;;;-3.92;77.61;100533.90;208861;1320;141037;-66
2021/12/23 02:07:27;;;;;;;50.70;26.70;;;;;;;-3.94;77.21;100531.98;208771;1317;140652;-66
2021/12/23 02:12:30;;;;;;;53.10;24.90;;;;;;;-3.91;77.37;100526.83;207109;1318;140576;-65
2021/12/23 02:17:36;;;;;;;54.70;25.10;;;;;;;-3.85;77.26;100516.81;207336;1316;140555;-66
2021/12/23 02:22:40;;;;;;;59.00;25.80;;;;;;;-3.84;77.24;100508.93;207392;1319;141054;-65
2021/12/23 02:27:44;;;;;;;58.20;28.90;;;;;;;-3.86;77.34;100503.30;207356;1317;141971;-66
2021/12/23 02:32:47;;;;;;;58.90;27.90;;;;;;;-3.86;77.27;100496.91;207046;1319;140768;-67
2021/12/23 02:37:50;;;;;;;55.20;23.40;;;;;;;-3.88;77.36;100489.45;207417;1316;139972;-67
2021/12/23 02:42:55;;;;;;;54.40;27.00;;;;;;;-3.93;77.16;100488.49;207078;1319;141387;-66
2021/12/23 02:47:58;;;;;;;64.90;30.00;;;;;;;-3.97;77.12;100482.71;207126;1316;144064;-66
2021/12/23 02:53:01;;;;;;;57.30;28.00;;;;;;;-3.96;76.90;100472.23;208092;1317;140932;-66
2021/12/23 02:58:09;;;;;;;61.20;28.00;;;;;;;-3.97;76.89;100463.83;207245;1317;141171;-66
2021/12/23 03:03:13;;;;;;;61.90;30.60;;;;;;;-4.04;76.76;100456.59;206911;1317;141007;-65
2021/12/23 03:08:26;;;;;;;66.20;32.70;;;;;;;-4.13;76.86;100453.10;208008;1317;139604;-65
2021/12/23 03:13:28;;;;;;;62.80;33.00;;;;;;;-4.24;76.76;100443.63;207611;1316;140848;-65
2021/12/23 03:18:39;;;;;;;67.70;28.80;;;;;;;-4.32;76.56;100430.72;207006;1317;140249;-65
2021/12/23 03:23:42;;;;;;;61.30;31.30;;;;;;;-4.38;76.38;100422.35;207544;1318;140687;-67
2021/12/23 03:28:46;;;;;;;71.20;33.40;;;;;;;-4.42;76.59;100421.05;207199;1318;141082;-65
2021/12/23 03:33:49;;;;;;;75.80;34.50;;;;;;;-4.48;76.67;100420.11;207116;1319;140811;-65
2021/12/23 03:38:56;;;;;;;65.20;31.60;;;;;;;-4.55;76.68;100416.02;207855;1319;140829;-65
2021/12/23 03:44:00;;;;;;;;;;;;;;;-4.65;76.55;100413.92;207763;1317;140874;-65
2021/12/23 03:49:05;;;;;;;70.20;34.40;;;;;;;-4.80;76.60;100407.60;208296;1317;126432;-66
2021/12/23 03:54:08;;;;;;;60.50;30.40;;;;;;;-4.86;76.41;100401.98;209139;1317;140822;-66
2021/12/23 03:59:11;;;;;;;63.60;30.70;;;;;;;-4.83;76.45;100398.46;208952;1317;140603;-66
2021/12/23 04:04:13;;;;;;;76.00;36.60;;;;;;;-4.82;76.56;100395.16;208994;1316;140029;-66
2021/12/23 04:09:17;;;;;;;58.50;25.70;;;;;;;-4.85;76.38;100387.92;207635;1317;139705;-65
2021/12/23 04:14:21;;;;;;;76.20;35.40;;;;;;;-4.96;76.29;100376.63;208145;1319;139718;-65
2021/12/23 04:19:28;;;;;;;64.80;30.10;;;;;;;-5.00;76.35;100366.06;207533;1316;140161;-66
2021/12/23 04:24:33;;;;;;;66.60;33.40;;;;;;;-4.99;76.46;100354.55;207694;1316;141524;-65
2021/12/23 04:29:39;;;;;;;76.70;34.60;;;;;;;-5.01;76.61;100348.63;207484;1316;139519;-65
2021/12/23 04:34:42;;;;;;;57.50;29.80;;;;;;;-5.09;76.67;100339.02;207084;1317;139766;-66
2021/12/23 04:39:45;;;;;;;47.70;24.80;;;;;;;-5.19;76.58;100329.23;207667;1317;140073;-64
2021/12/23 04:44:53;;;;;;;71.20;36.00;;;;;;;-5.27;76.45;100321.34;207275;1318;139687;-65
2021/12/23 04:49:56;;;;;;;75.20;36.20;;;;;;;-5.30;76.59;100316.94;207785;1316;140183;-65
2021/12/23 04:54:59;;;;;;;82.50;38.50;;;;;;;-5.30;76.84;100320.02;207054;1317;140676;-64
2021/12/23 05:00:02;;;;;;;88.90;36.70;;;;;;;-5.28;76.96;100314.16;207303;1316;139638;-65
2021/12/23 05:05:06;;;;;;;60.90;29.30;;;;;;;-5.31;76.82;100309.08;207109;1318;139986;-65
2021/12/23 05:10:10;;;;;;;70.10;33.00;;;;;;;-5.40;76.73;100300.38;207882;1317;139759;-65
2021/12/23 05:15:15;;;;;;;79.10;33.10;;;;;;;-5.48;76.77;100288.39;206829;1317;140539;-67
2021/12/23 05:20:19;;;;;;;71.90;38.70;;;;;;;-5.51;76.72;100280.45;207786;1317;140999;-67
2021/12/23 05:25:31;;;;;;;80.10;37.20;;;;;;;-5.53;76.75;100268.38;207863;1318;141046;-65
2021/12/23 05:30:35;;;;;;;86.60;33.70;;;;;;;-5.57;76.85;100262.92;207045;1321;141673;-65
2021/12/23 05:35:38;;;;;;;75.60;37.30;;;;;;;-5.63;76.84;100253.22;207150;1318;141925;-65
2021/12/23 05:40:41;;;;;;;73.20;29.50;;;;;;;-5.66;77.22;100246.89;208001;1319;145634;-65
2021/12/23 05:45:44;;;;;;;79.40;39.20;;;;;;;-5.69;77.21;100249.34;207938;1319;141571;-65
2021/12/23 05:50:47;;;;;;;82.30;41.70;;;;;;;-5.67;77.12;100237.56;208496;1316;142019;-66
2021/12/23 05:55:52;;;;;;;78.20;36.30;;;;;;;-5.62;77.05;100232.48;208666;1320;535993;-66
2021/12/23 06:00:56;;;;;;;89.40;41.50;;;;;;;-5.58;77.36;100230.50;209061;1317;140511;-66
2021/12/23 06:05:59;;;;;;;85.10;39.10;;;;;;;-5.57;77.31;100221.18;209225;1317;140846;-67
2021/12/23 06:11:01;;;;;;;82.50;40.80;;;;;;;-5.57;77.29;100217.19;207724;1317;140925;-66
2021/12/23 06:16:04;;;;;;;85.60;36.20;;;;;;;-5.56;77.29;100216.11;207325;1316;140770;-64
2021/12/23 06:21:09;;;;;;;80.90;37.70;;;;;;;-5.61;77.22;100213.08;206924;1317;141186;-65
2021/12/23 06:26:12;;;;;;;91.20;40.40;;;;;;;-5.65;77.09;100205.92;207905;1318;142383;-63
2021/12/23 06:31:15;;;;;;;88.60;42.60;;;;;;;-5.64;77.14;100200.33;206995;1318;142228;-66
2021/12/23 06:36:17;;;;;;;79.50;39.30;;;;;;;-5.67;77.31;100199.64;206898;1318;141128;-68
2021/12/23 06:41:20;;;;;;;82.60;36.90;;;;;;;-5.71;77.38;100195.66;206614;1316;140898;-66
2021/12/23 06:46:22;;;;;;;95.70;38.30;;;;;;;-5.75;77.63;100196.48;206724;1318;142567;-66
2021/12/23 06:51:28;;;;;;;79.40;37.90;;;;;;;-5.78;77.74;100193.73;206845;1318;141925;-66
2021/12/23 06:56:31;;;;;;;70.50;32.10;;;;;;;-5.80;77.80;100190.27;206626;1318;140618;-64
2021/12/23 07:01:35;;;;;;;92.50;39.10;;;;;;;-5.81;77.61;100177.73;207123;1318;141485;-64
2021/12/23 07:06:47;;;;;;;74.00;37.30;;;;;;;-5.78;77.59;100167.92;207153;1317;141862;-64
2021/12/23 07:11:50;;;;;;;87.80;42.60;;;;;;;-5.72;77.62;100162.82;207604;1318;141736;-64
2021/12/23 07:16:54;;;;;;;76.30;34.40;;;;;;;-5.66;77.86;100163.92;206958;1317;140931;-65
2021/12/23 07:21:56;;;;;;;80.60;40.90;;;;;;;-5.64;77.84;100159.44;207135;1318;142061;-67
2021/12/23 07:27:00;;;;;;;92.40;39.40;;;;;;;-5.60;78.03;100154.46;207964;1317;141582;-65
2021/12/23 07:32:05;;;;;;;89.20;38.50;;;;;;;-5.53;77.95;100148.16;207404;1317;143567;-65
2021/12/23 07:37:11;;;;;;;85.00;35.70;;;;;;;-5.40;77.77;100144.89;207124;1316;141238;-66
2021/12/23 07:42:15;;;;;;;86.00;37.20;;;;;;;-5.32;77.72;100132.65;206732;1318;141843;-67
2021/12/23 07:47:18;;;;;;;88.30;42.20;;;;;;;-5.23;77.94;100130.14;207423;1317;144102;-65
2021/12/23 07:52:22;;;;;;;83.20;41.20;;;;;;;-5.14;77.90;100122.28;207125;1318;142054;-69
2021/12/23 07:57:25;;;;;;;82.70;39.60;;;;;;;-5.06;77.87;100116.46;208130;1317;140058;-65
2021/12/23 08:02:28;;;;;;;63.60;29.00;;;;;;;-4.97;77.89;100112.08;206849;1316;141840;-65
2021/12/23 08:07:31;;;;;;;79.60;36.80;;;;;;;-4.91;77.65;100101.86;209330;1317;140151;-64
2021/12/23 08:12:34;;;;;;;68.00;35.80;;;;;;;-4.78;77.46;100091.94;208333;1318;140750;-67
2021/12/23 08:17:38;;;;;;;70.10;34.70;;;;;;;-4.65;77.43;100074.39;208525;1318;140483;-64
2021/12/23 08:22:45;;;;;;;80.90;36.50;;;;;;;-4.54;77.40;100059.56;209177;1316;139740;-65
2021/12/23 08:27:47;;;;;;;57.60;26.60;;;;;;;-4.40;77.41;100053.13;208627;1317;141289;-64
2021/12/23 08:32:51;;;;;;;71.50;34.70;;;;;;;-4.27;77.09;100042.98;208084;1317;140944;-64
2021/12/23 08:37:55;;;;;;;68.50;36.20;;;;;;;-4.10;76.95;100040.81;207113;1318;141423;-64
2021/12/23 08:43:02;;;;;;;66.00;36.50;;;;;;;-3.93;76.85;100048.38;207677;1317;140487;-64
2021/12/23 08:48:06;;;;;;;87.00;41.20;;;;;;;-3.82;76.95;100037.84;208217;1318;140390;-65
2021/12/23 08:53:08;;;;;;;77.20;36.30;;;;;;;-3.73;76.78;100027.28;207048;1319;140957;-64
2021/12/23 08:58:11;;;;;;;72.90;37.80;;;;;;;-3.64;76.82;100022.50;208031;1317;141161;-64
2021/12/23 09:03:14;;;;;;;63.20;31.10;;;;;;;-3.51;76.57;100022.34;207953;1316;141776;-65
2021/12/23 09:08:17;;;;;;;74.00;41.60;;;;;;;-3.35;76.48;100015.91;207563;1317;139713;-64
2021/12/23 09:13:20;;;;;;;53.30;31.30;;;;;;;-3.21;76.54;100007.14;206828;1318;140712;-66
2021/12/23 09:18:23;;;;;;;57.20;30.10;;;;;;;-3.09;76.73;100008.05;206721;1316;139677;-65
2021/12/23 09:23:28;;;;;;;63.00;28.90;;;;;;;-3.02;76.54;99993.48;206919;1317;139907;-65
2021/12/23 09:28:41;;;;;;;61.80;28.30;;;;;;;-2.90;76.28;99983.36;207921;1318;140127;-65
2021/12/23 09:33:45;;;;;;;46.30;26.40;;;;;;;-2.78;76.31;99972.16;207032;1318;139804;-64
2021/12/23 09:38:47;;;;;;;38.50;21.70;;;;;;;-2.68;76.02;99968.14;207583;1318;139685;-66
2021/12/23 09:43:51;;;;;;;47.90;24.10;;;;;;;-2.59;76.08;99961.69;208365;1318;141523;-65
2021/12/23 09:48:53;;;;;;;49.20;23.10;;;;;;;-2.45;76.03;99949.91;207287;1318;140931;-66
2021/12/23 09:53:59;;;;;;;46.60;24.00;;;;;;;-2.29;75.66;99944.40;207731;1318;141100;-68
2021/12/23 09:59:06;;;;;;;44.40;21.80;;;;;;;-2.15;75.84;99943.02;208836;1318;141207;-66
2021/12/23 10:04:09;;;;;;;44.30;20.60;;;;;;;-2.06;75.57;99927.63;208426;1317;140680;-67
2021/12/23 10:09:20;;;;;;;44.30;22.80;;;;;;;-1.97;75.32;99913.08;208267;1319;140431;-68
2021/12/23 10:31:25;;;;;;;39.10;20.30;;;;;;;-1.47;74.65;99829.05;208743;1317;141033;-67
2021/12/23 10:41:24;;;;;;;41.70;22.90;;;;;;;-1.31;74.52;99808.16;207375;1318;142030;-68
2021/12/23 10:46:39;;;;;;;37.70;21.20;;;;;;;-1.23;74.16;99807.59;206898;1318;141537;-68
2021/12/23 10:52:18;;;;;;;42.10;29.10;;;;;;;-1.23;74.00;99800.27;208558;1315;141602;-68
2021/12/23 11:03:18;;;;;;;39.70;26.60;;;;;;;-1.16;74.17;99775.48;208635;1317;139623;-66
2021/12/23 11:08:33;;;;;;;31.80;21.80;;;;;;;-1.13;74.15;99772.35;207267;1318;141029;-67
2021/12/23 11:40:52;;;;;;;27.90;16.80;;;;;;;-1.17;73.29;99676.44;207116;1318;140565;-65
2021/12/23 11:45:56;;;;;;;31.20;16.60;;;;;;;-1.20;73.35;99663.65;207943;1316;206879;-66
2021/12/23 11:51:08;;;;;;;32.00;17.10;;;;;;;-1.12;73.11;99663.44;207930;1318;141453;-65
2021/12/23 11:56:13;;;;;;;26.70;16.00;;;;;;;-1.01;73.13;99650.67;206957;1318;140146;-64
2021/12/23 12:01:22;;;;;;;33.00;17.40;;;;;;;-0.91;73.20;99644.05;207671;1316;139684;-67
2021/12/23 12:06:27;;;;;;;;;;;;;;;-0.89;72.92;99636.23;208564;1317;140319;-67
2021/12/23 12:11:30;;;;;;;26.50;14.90;;;;;;;-0.90;73.16;99622.76;209180;1316;126906;-68
2021/12/23 12:16:37;;;;;;;29.50;18.20;;;;;;;-0.88;72.85;99608.24;207107;1318;139993;-66
2021/12/23 12:21:43;;;;;;;35.90;18.20;;;;;;;-0.84;72.58;99590.21;208652;1317;140750;-68
2021/12/23 12:26:58;;;;;;;32.20;18.40;;;;;;;-0.81;72.58;99579.45;208469;1319;142908;-68
2021/12/23 12:32:01;;;;;;;36.00;18.40;;;;;;;-0.78;72.60;99563.78;208125;1316;140304;-68
2021/12/23 12:37:07;;;;;;;33.00;20.60;;;;;;;-0.78;72.56;99541.45;209325;1317;140885;-68
2021/12/23 12:42:30;;;;;;;33.60;16.30;;;;;;;-0.79;72.48;99526.33;208011;1318;140548;-69
2021/12/23 12:47:37;;;;;;;30.70;19.70;;;;;;;-0.70;72.45;99528.51;208532;1316;139895;-69
2021/12/23 12:52:46;;;;;;;28.60;18.20;;;;;;;-0.59;72.46;99525.36;207487;1318;142644;-69
2021/12/23 12:57:56;;;;;;;27.60;17.40;;;;;;;-0.55;72.32;99529.83;207311;1317;140389;-68
2021/12/23 13:03:03;;;;;;;29.40;18.10;;;;;;;-0.56;72.34;99513.98;206943;1316;140796;-68
2021/12/23 13:08:35;;;;;;;25.20;15.20;;;;;;;-0.53;72.47;99504.98;207776;1318;140646;-68
2021/12/23 13:13:45;;;;;;;29.50;18.80;;;;;;;-0.55;72.38;99500.51;207322;1316;140119;-67
2021/12/23 13:19:17;;;;;;;33.30;16.60;;;;;;;-0.56;72.33;99490.42;206868;1318;143251;-66
2021/12/23 13:24:22;;;;;;;21.90;14.30;;;;;;;-0.59;72.05;99480.20;207240;1318;141796;-67
2021/12/23 13:29:29;;;;;;;30.20;17.10;;;;;;;-0.63;72.06;99477.80;206849;1318;140861;-71
2021/12/23 13:34:36;;;;;;;27.80;17.90;;;;;;;-0.72;71.96;99474.46;208274;1318;140425;-66
2021/12/23 13:39:43;;;;;;;26.40;15.10;;;;;;;-0.81;72.18;99458.16;207552;1317;141213;-68
2021/12/23 13:44:48;;;;;;;29.20;17.80;;;;;;;-0.88;72.04;99456.83;207914;1318;140144;-68
2021/12/23 13:49:55;;;;;;;32.10;18.20;;;;;;;-0.97;72.12;99441.45;207298;1316;140752;-66
2021/12/23 13:55:01;;;;;;;26.70;15.50;;;;;;;-1.03;72.31;99428.34;205812;1318;1597977;-65
2021/12/23 14:01:02;;;;;;;27.40;15.00;;;;;;;-1.12;72.31;99419.73;207984;1318;140383;-65
2021/12/23 14:06:05;;;;;;;28.40;16.80;;;;;;;-1.25;72.40;99408.58;207161;1318;140994;-65
2021/12/23 14:11:10;;;;;;;24.70;14.30;;;;;;;-1.35;72.47;99417.00;206578;1317;141722;-65
2021/12/23 14:16:20;;;;;;;31.80;18.00;;;;;;;-1.45;72.43;99408.84;208051;1318;139628;-66
2021/12/23 14:26:50;;;;;;;18.70;10.40;;;;;;;-1.51;72.50;99386.52;208932;1318;141458;-64
2021/12/23 14:31:55;;;;;;;32.80;18.30;;;;;;;-1.56;72.31;99376.85;208468;1318;140648;-67
2021/12/23 14:37:02;;;;;;;31.20;16.90;;;;;;;-1.61;72.52;99362.31;209438;1317;140502;-67
2021/12/23 14:42:32;;;;;;;;;;;;;;;-1.65;72.60;99346.60;208871;1314;140383;-67
2021/12/23 14:47:35;;;;;;;30.20;17.00;;;;;;;-1.73;72.66;99343.04;209473;1317;127245;-66
2021/12/23 14:52:53;;;;;;;26.90;16.40;;;;;;;-1.71;72.53;99331.52;208984;1318;140451;-67
2021/12/23 14:58:03;;;;;;;25.10;15.80;;;;;;;-1.71;72.58;99326.29;208289;1317;139917;-67
2021/12/23 15:03:09;;;;;;;28.30;18.40;;;;;;;-1.71;72.63;99321.88;208251;1316;140754;-67
2021/12/23 15:08:19;;;;;;;32.00;18.20;;;;;;;-1.67;72.93;99315.80;207981;1318;141263;-67
2021/12/23 15:13:28;;;;;;;33.80;18.60;;;;;;;-1.70;72.88;99305.77;207845;1317;139237;-70
2021/12/23 15:18:42;;;;;;;26.00;14.30;;;;;;;-1.74;72.86;99288.67;207813;1316;139512;-68
2021/12/23 15:23:49;;;;;;;;;;;;;;;-1.80;72.87;99275.41;207690;1317;140800;-67
2021/12/23 15:29:03;;;;;;;32.70;18.00;;;;;;;-1.83;72.83;99267.17;208756;1316;126991;-65
2021/12/23 15:34:10;;;;;;;31.70;18.60;;;;;;;-1.85;73.04;99252.95;208506;1316;140653;-66
2021/12/23 15:39:31;;;;;;;35.80;17.30;;;;;;;-1.85;73.26;99238.84;207664;1318;139456;-65
2021/12/23 15:44:38;;;;;;;39.10;19.80;;;;;;;-1.83;73.37;99223.11;207705;1318;142217;-65
2021/12/23 15:49:42;;;;;;;32.90;18.70;;;;;;;-1.85;73.53;99216.60;207824;1317;140369;-66
2021/12/23 15:54:48;;;;;;;40.90;19.50;;;;;;;-1.87;73.42;99209.63;207191;1316;142079;-65
2021/12/23 15:59:54;;;;;;;34.30;20.00;;;;;;;-1.82;73.57;99196.72;206729;1318;140962;-65
2021/12/23 16:10:16;;;;;;;28.30;18.60;;;;;;;-1.76;73.88;99172.79;207665;1318;141597;-64
2021/12/23 16:15:21;;;;;;;25.60;14.40;;;;;;;-1.77;73.89;99162.34;206700;1318;143500;-65
2021/12/23 16:20:24;;;;;;;39.70;19.40;;;;;;;-1.83;73.76;99150.58;207365;1318;140995;-65
2021/12/23 16:25:27;;;;;;;35.60;21.40;;;;;;;-1.83;73.96;99134.85;208605;1317;140846;-66
2021/12/23 16:30:30;;;;;;;29.50;18.40;;;;;;;-1.80;73.90;99129.43;206953;1316;141896;-65
2021/12/23 16:35:39;;;;;;;39.30;21.30;;;;;;;-1.74;73.99;99117.42;207638;1318;142670;-66
2021/12/23 16:40:49;;;;;;;39.70;20.90;;;;;;;-1.72;74.07;99108.27;207238;1316;142047;-65
2021/12/23 16:45:53;;;;;;;34.30;19.90;;;;;;;-1.69;74.21;99109.41;208224;1318;139783;-66
2021/12/23 16:50:58;;;;;;;33.10;19.20;;;;;;;-1.68;74.22;99108.05;207926;1316;140330;-66
2021/12/23 17:01:17;;;;;;;30.70;17.40;;;;;;;-1.68;74.07;99097.64;207023;1318;140893;-64
2021/12/23 17:06:22;;;;;;;43.90;21.10;;;;;;;-1.67;74.08;99088.42;208362;1318;139887;-64
2021/12/23 17:11:25;;;;;;;34.60;19.20;;;;;;;-1.62;74.14;99077.65;207559;1316;139988;-64
2021/12/23 17:16:29;;;;;;;40.30;21.70;;;;;;;-1.54;74.29;99079.10;207679;1317;140809;-64
2021/12/23 17:21:49;;;;;;;22.50;13.40;;;;;;;-1.46;74.29;99074.77;207051;1318;139724;-63
2021/12/23 17:26:54;;;;;;;42.50;23.20;;;;;;;-1.51;74.21;99058.91;208199;1316;141560;-63
2021/12/23 17:31:57;;;;;;;43.80;21.00;;;;;;;-1.55;74.16;99047.23;207776;1318;140493;-63
2021/12/23 17:37:00;;;;;;;36.90;18.70;;;;;;;-1.56;74.38;99039.34;207542;1318;140758;-64
2021/12/23 17:42:03;;;;;;;37.70;22.80;;;;;;;-1.56;74.30;99033.35;207720;1318;140138;-64
2021/12/23 17:47:07;;;;;;;43.90;22.10;;;;;;;-1.49;74.34;99024.85;207200;1318;141574;-63
2021/12/23 17:52:10;;;;;;;36.30;22.00;;;;;;;-1.44;74.49;99015.05;207161;1318;143229;-64
2021/12/23 17:57:13;;;;;;;42.60;22.00;;;;;;;-1.40;74.53;99006.79;207993;1317;139472;-63
2021/12/23 18:02:16;;;;;;;41.10;22.40;;;;;;;-1.39;74.59;98998.45;207261;1318;140069;-64
2021/12/23 18:07:18;;;;;;;35.00;20.10;;;;;;;-1.40;74.53;98995.41;206950;1318;155755;-64
2021/12/23 18:12:22;;;;;;;45.20;21.00;;;;;;;-1.43;74.60;99005.85;207113;1318;140690;-63
2021/12/23 18:17:25;;;;;;;42.20;21.70;;;;;;;-1.42;74.55;99011.34;206798;1317;141463;-65
2021/12/23 18:22:28;;;;;;;40.10;20.10;;;;;;;-1.39;74.45;99005.93;207085;1317;141013;-66
2021/12/23 18:27:32;;;;;;;45.40;23.70;;;;;;;-1.39;74.65;98989.00;206382;1318;140682;-65
2021/12/23 18:32:49;;;;;;;42.90;23.30;;;;;;;-1.38;74.65;98972.69;207691;1316;140510;-65
2021/12/23 18:37:55;;;;;;;36.50;20.80;;;;;;;-1.38;74.71;98958.40;207077;1317;141062;-66
2021/12/23 18:42:59;;;;;;;31.30;17.30;;;;;;;-1.39;74.79;98944.07;207080;1318;150873;-66
2021/12/23 18:48:03;;;;;;;41.00;20.00;;;;;;;-1.40;74.53;98933.07;208969;1318;141751;-65
2021/12/23 18:53:05;;;;;;;43.00;22.50;;;;;;;-1.33;74.58;98922.09;208142;1318;141207;-63
2021/12/23 18:58:32;;;;;;;38.90;21.20;;;;;;;-1.26;74.62;98908.92;207761;1319;140695;-64
2021/12/23 19:03:57;;;;;;;36.10;20.10;;;;;;;-1.20;74.65;98887.76;208969;1317;140229;-68
2021/12/23 19:09:03;;;;;;;36.90;19.00;;;;;;;-1.17;74.45;98879.62;208347;1317;140335;-68
2021/12/23 19:14:14;;;;;;;27.70;18.30;;;;;;;-1.18;74.55;98876.06;206861;1317;140557;-65
2021/12/23 19:19:17;;;;;;;48.10;20.30;;;;;;;-1.21;74.34;98868.67;207009;1318;141054;-66
2021/12/23 19:24:20;;;;;;;61.80;34.80;;;;;;;-1.22;74.43;98859.77;206938;1318;140586;-64
2021/12/23 19:29:26;;;;;;;43.70;26.80;;;;;;;-1.16;74.43;98851.00;208364;1318;140803;-68
2021/12/23 19:34:29;;;;;;;45.10;26.00;;;;;;;-1.07;74.59;98845.28;207629;1316;140212;-65
2021/12/23 19:39:32;;;;;;;43.10;23.40;;;;;;;-1.03;74.67;98843.05;207486;1318;140079;-65
2021/12/23 19:44:38;;;;;;;36.10;17.90;;;;;;;-1.04;74.54;98830.20;206990;1319;141408;-65
2021/12/23 19:49:47;;;;;;;41.40;22.30;;;;;;;-1.05;74.62;98822.77;207000;1319;140429;-66
2021/12/23 19:54:49;;;;;;;28.30;16.30;;;;;;;-1.11;74.39;98813.73;206632;1317;139675;-65
2021/12/23 19:59:51;;;;;;;35.20;20.60;;;;;;;-1.15;74.63;98805.95;207226;1320;140031;-67
2021/12/23 20:04:57;;;;;;;41.80;19.80;;;;;;;-1.11;74.37;98800.24;206773;1318;140570;-64
2021/12/23 20:10:00;;;;;;;38.10;21.40;;;;;;;-1.08;74.22;98796.79;207356;1316;139899;-65
2021/12/23 20:15:05;;;;;;;36.20;19.50;;;;;;;-1.10;74.60;98786.83;207325;1318;139803;-67
2021/12/23 20:20:11;;;;;;;32.50;19.20;;;;;;;-1.10;74.74;98768.16;206593;1318;139768;-67
2021/12/23 20:25:16;;;;;;;38.80;21.50;;;;;;;-1.13;74.95;98757.13;206454;1319;139660;-67
2021/12/23 20:30:24;;;;;;;44.30;22.40;;;;;;;-1.14;75.04;98744.80;208053;1318;140094;-65
2021/12/23 20:35:27;;;;;;;37.40;21.50;;;;;;;-1.12;75.36;98731.23;208425;1319;140403;-65
2021/12/23 20:40:30;;;;;;;27.30;17.40;;;;;;;-1.11;75.75;98716.73;208655;1319;152990;-65
2021/12/23 20:45:33;;;;;;;33.90;21.90;;;;;;;-1.16;75.87;98708.09;208107;1319;140178;-65
2021/12/23 20:50:51;;;;;;;;;;;;;;;;;;;;;
2021/12/23 20:56:01;;;;;;;42.50;23.90;;;;;;;-1.22;76.29;98683.70;208839;1322;140374;-65
2021/12/23 21:01:09;;;;;;;41.20;22.90;;;;;;;-1.20;76.55;98675.42;208698;1323;141574;-68
2021/12/23 21:06:12;;;;;;;44.10;27.20;;;;;;;-1.17;76.64;98660.13;208188;1320;221889;-67
2021/12/23 21:11:15;;;;;;;46.40;24.90;;;;;;;-1.18;76.94;98647.98;208670;1321;141862;-68
2021/12/23 21:16:17;;;;;;;41.70;24.80;;;;;;;-1.16;77.13;98641.31;209236;1317;140554;-68
2021/12/23 21:21:22;;;;;;;42.60;22.20;;;;;;;-1.15;77.23;98629.02;207045;1317;141816;-65
2021/12/23 21:26:28;;;;;;;45.70;25.00;;;;;;;-1.14;77.19;98614.02;207841;1319;141593;-68
2021/12/23 21:31:34;;;;;;;47.50;26.90;;;;;;;-1.08;77.34;98598.58;207533;1318;141127;-67
2021/12/23 21:36:43;;;;;;;44.50;23.70;;;;;;;-1.06;77.53;98583.15;206727;1318;162904;-66
2021/12/23 21:41:47;;;;;;;43.00;23.70;;;;;;;-1.11;77.80;98571.80;207695;1318;250065;-64
2021/12/23 21:46:51;;;;;;;51.00;25.40;;;;;;;-1.15;77.92;98565.23;207717;1318;140367;-65
2021/12/23 21:51:54;;;;;;;47.70;27.30;;;;;;;-1.17;77.84;98544.38;207123;1316;617023;-63
2021/12/23 21:56:57;;;;;;;45.00;25.80;;;;;;;-1.14;77.91;98530.02;207059;1319;141226;-64
2021/12/23 22:01:59;;;;;;;52.80;28.30;;;;;;;-1.10;78.01;98513.47;207503;1317;140089;-64
2021/12/23 22:07:02;;;;;;;40.60;24.20;;;;;;;-1.12;78.16;98496.27;207388;1317;140681;-64
2021/12/23 22:12:05;;;;;;;47.20;27.30;;;;;;;-1.17;78.28;98478.29;207587;1318;141614;-65
2021/12/23 22:17:08;;;;;;;51.30;26.30;;;;;;;-1.21;78.49;98467.13;206944;1316;140703;-66
2021/12/23 22:22:11;;;;;;;53.30;29.50;;;;;;;-1.23;78.43;98458.99;207259;1318;140798;-65
2021/12/23 22:27:13;;;;;;;46.20;26.30;;;;;;;-1.20;78.44;98445.20;208099;1317;142241;-68
2021/12/23 22:32:16;;;;;;;49.00;28.00;;;;;;;-1.17;78.71;98440.23;208173;1317;139912;-65
2021/12/23 22:37:19;;;;;;;46.60;25.00;;;;;;;-1.17;78.73;98428.81;207772;1319;140186;-64
2021/12/23 22:42:23;;;;;;;42.40;25.20;;;;;;;-1.18;78.88;98414.56;208464;1318;140362;-65
2021/12/23 22:47:25;;;;;;;52.50;27.50;;;;;;;-1.20;78.74;98409.04;206765;1319;141494;-67
2021/12/23 22:52:28;;;;;;;47.80;27.70;;;;;;;-1.18;78.63;98402.77;207856;1317;141665;-68
2021/12/23 22:57:32;;;;;;;46.80;27.50;;;;;;;-1.16;78.87;98398.45;207926;1316;141088;-69
2021/12/23 23:02:35;;;;;;;41.10;24.40;;;;;;;-1.14;78.94;98387.32;208054;1316;140374;-65
2021/12/23 23:07:38;;;;;;;46.70;26.50;;;;;;;-1.17;78.96;98374.10;209198;1317;139731;-66
2021/12/23 23:12:41;;;;;;;51.70;25.40;;;;;;;-1.17;78.94;98368.80;209045;1321;140060;-66
2021/12/23 23:17:44;;;;;;;49.90;25.40;;;;;;;-1.09;79.04;98366.06;209115;1317;141814;-65
2021/12/23 23:22:47;;;;;;;50.10;25.00;;;;;;;-1.05;79.15;98367.83;209343;1317;141348;-66
2021/12/23 23:28:11;;;;;;;48.70;24.00;;;;;;;-1.05;79.05;98356.88;208276;1317;140035;-66
2021/12/23 23:38:57;;;;;;;50.40;28.00;;;;;;;-1.06;79.04;98336.35;207406;1318;140449;-64
2021/12/23 23:44:01;;;;;;;113.10;62.10;;;;;;;-1.08;79.14;98331.80;208047;1319;141177;-67
2021/12/23 23:49:04;;;;;;;64.40;41.80;;;;;;;-1.13;79.38;98317.89;207140;1318;139993;-64
2021/12/23 23:54:08;;;;;;;44.60;30.60;;;;;;;-1.17;79.38;98300.98;207380;1319;140574;-65
2021/12/23 23:59:12;;;;;;;60.40;33.40;;;;;;;-1.21;79.35;98283.89;208333;1317;141046;-64
